sensor_id;sensor_type;location;lat;lon;timestamp;pressure;altitude;pressure_sealevel;temperature;humidity
17781;BME280;8498;52.516;13.790;2024-03-17T00:03:28;101624.50;;;6.33;75.40
17781;BME280;8498;52.516;13.790;2024-03-17T00:08:49;101628.13;;;6.31;75.65
17781;BME280;8498;52.516;13.790;2024-03-17T00:14:11;101632.56;;;6.29;76.43
17781;BME280;8498;52.516;13.790;2024-03-17T00:19:32;101632.53;;;6.30;76.13
17781;BME280;8498;52.516;13.790;2024-03-17T00:24:53;101629.91;;;6.30;76.20
17781;BME280;8498;52.516;13.790;2024-03-17T00:30:14;101628.31;;;6.24;76.95
17781;BME280;8498;52.516;13.790;2024-03-17T00:35:36;101633.88;;;6.17;77.43
17781;BME280;8498;52.516;13.790;2024-03-17T00:40:58;101620.84;;;6.12;77.95
17781;BME280;8498;52.516;13.790;2024-03-17T00:46:20;101623.53;;;6.11;78.50
17781;BME280;8498;52.516;13.790;2024-03-17T00:51:41;101638.00;;;5.99;79.22
17781;BME280;8498;52.516;13.790;2024-03-17T00:57:03;101635.81;;;6.12;78.83
17781;BME280;8498;52.516;13.790;2024-03-17T01:02:24;101638.75;;;6.03;79.39
17781;BME280;8498;52.516;13.790;2024-03-17T01:07:45;101646.97;;;5.94;80.06
17781;BME280;8498;52.516;13.790;2024-03-17T01:13:09;101638.38;;;5.87;80.19
17781;BME280;8498;52.516;13.790;2024-03-17T01:18:31;101648.94;;;5.87;79.80
17781;BME280;8498;52.516;13.790;2024-03-17T01:23:52;101645.19;;;5.94;79.24
17781;BME280;8498;52.516;13.790;2024-03-17T01:29:14;101634.59;;;5.96;79.40
17781;BME280;8498;52.516;13.790;2024-03-17T01:34:35;101641.50;;;6.00;78.73
17781;BME280;8498;52.516;13.790;2024-03-17T01:39:56;101644.00;;;6.03;78.42
17781;BME280;8498;52.516;13.790;2024-03-17T01:50:38;101628.91;;;6.08;78.59
17781;BME280;8498;52.516;13.790;2024-03-17T01:56:00;101625.72;;;6.23;78.50
17781;BME280;8498;52.516;13.790;2024-03-17T02:01:22;101621.59;;;6.16;78.70
17781;BME280;8498;52.516;13.790;2024-03-17T02:06:43;101623.63;;;6.08;78.53
17781;BME280;8498;52.516;13.790;2024-03-17T02:12:04;101631.44;;;6.11;79.25
17781;BME280;8498;52.516;13.790;2024-03-17T02:17:25;101632.47;;;6.07;79.47
17781;BME280;8498;52.516;13.790;2024-03-17T02:22:48;101645.25;;;5.93;79.38
17781;BME280;8498;52.516;13.790;2024-03-17T02:28:09;101632.88;;;5.95;79.43
17781;BME280;8498;52.516;13.790;2024-03-17T02:33:30;101632.50;;;5.79;79.42
17781;BME280;8498;52.516;13.790;2024-03-17T02:38:52;101645.44;;;5.86;79.66
17781;BME280;8498;52.516;13.790;2024-03-17T02:44:33;101650.78;;;5.83;80.10
17781;BME280;8498;52.516;13.790;2024-03-17T02:49:55;101644.69;;;5.81;79.93
17781;BME280;8498;52.516;13.790;2024-03-17T02:55:16;101640.63;;;5.71;80.61
17781;BME280;8498;52.516;13.790;2024-03-17T03:00:38;101636.78;;;5.81;80.10
17781;BME280;8498;52.516;13.790;2024-03-17T03:06:01;101644.31;;;5.67;80.53
17781;BME280;8498;52.516;13.790;2024-03-17T03:11:25;101649.97;;;5.55;80.94
17781;BME280;8498;52.516;13.790;2024-03-17T03:16:46;101642.88;;;5.57;81.39
17781;BME280;8498;52.516;13.790;2024-03-17T03:22:08;101650.78;;;5.57;81.58
17781;BME280;8498;52.516;13.790;2024-03-17T03:27:29;101650.19;;;5.49;81.74
17781;BME280;8498;52.516;13.790;2024-03-17T03:32:50;101659.94;;;5.45;82.47
17781;BME280;8498;52.516;13.790;2024-03-17T03:38:12;101646.81;;;5.44;82.55
17781;BME280;8498;52.516;13.790;2024-03-17T03:43:34;101653.94;;;5.40;82.93
17781;BME280;8498;52.516;13.790;2024-03-17T03:48:55;101649.88;;;5.30;83.87
17781;BME280;8498;52.516;13.790;2024-03-17T03:54:16;101648.88;;;5.34;83.81
17781;BME280;8498;52.516;13.790;2024-03-17T03:59:38;101655.69;;;5.12;84.92
17781;BME280;8498;52.516;13.790;2024-03-17T04:04:59;101661.47;;;5.25;85.26
17781;BME280;8498;52.516;13.790;2024-03-17T04:10:21;101655.22;;;5.29;85.12
17781;BME280;8498;52.516;13.790;2024-03-17T04:15:43;101673.09;;;5.18;85.09
17781;BME280;8498;52.516;13.790;2024-03-17T04:21:06;101669.78;;;5.11;85.62
17781;BME280;8498;52.516;13.790;2024-03-17T04:26:30;101669.09;;;5.04;86.37
17781;BME280;8498;52.516;13.790;2024-03-17T04:31:51;101671.06;;;4.98;86.34
17781;BME280;8498;52.516;13.790;2024-03-17T04:37:12;101665.25;;;4.87;87.16
17781;BME280;8498;52.516;13.790;2024-03-17T04:42:33;101674.06;;;4.86;87.02
17781;BME280;8498;52.516;13.790;2024-03-17T04:47:54;101681.16;;;4.82;87.20
17781;BME280;8498;52.516;13.790;2024-03-17T04:53:15;101677.81;;;4.77;87.23
17781;BME280;8498;52.516;13.790;2024-03-17T04:58:36;101691.31;;;4.65;87.85
17781;BME280;8498;52.516;13.790;2024-03-17T05:03:57;101696.56;;;4.65;87.63
17781;BME280;8498;52.516;13.790;2024-03-17T05:09:19;101699.25;;;4.63;87.50
17781;BME280;8498;52.516;13.790;2024-03-17T05:14:40;101694.19;;;4.56;88.08
17781;BME280;8498;52.516;13.790;2024-03-17T05:20:01;101693.44;;;4.51;87.55
17781;BME280;8498;52.516;13.790;2024-03-17T05:25:23;101696.69;;;4.60;87.34
17781;BME280;8498;52.516;13.790;2024-03-17T05:30:44;101705.47;;;4.59;87.26
17781;BME280;8498;52.516;13.790;2024-03-17T05:36:05;101707.19;;;4.62;87.24
17781;BME280;8498;52.516;13.790;2024-03-17T05:41:27;101709.63;;;4.68;86.78
17781;BME280;8498;52.516;13.790;2024-03-17T05:46:48;101712.69;;;4.53;87.49
17781;BME280;8498;52.516;13.790;2024-03-17T05:52:12;101718.63;;;4.59;87.70
17781;BME280;8498;52.516;13.790;2024-03-17T05:57:34;101722.16;;;4.58;87.71
17781;BME280;8498;52.516;13.790;2024-03-17T06:02:55;101730.75;;;4.66;87.40
17781;BME280;8498;52.516;13.790;2024-03-17T06:08:16;101733.16;;;4.74;87.35
17781;BME280;8498;52.516;13.790;2024-03-17T06:13:38;101750.50;;;4.81;86.80
17781;BME280;8498;52.516;13.790;2024-03-17T06:18:59;101752.25;;;4.82;86.42
17781;BME280;8498;52.516;13.790;2024-03-17T06:24:20;101765.38;;;5.14;85.00
17781;BME280;8498;52.516;13.790;2024-03-17T06:29:41;101763.06;;;5.04;85.46
17781;BME280;8498;52.516;13.790;2024-03-17T06:35:04;101766.47;;;5.07;85.77
17781;BME280;8498;52.516;13.790;2024-03-17T06:40:25;101774.25;;;5.10;86.72
17781;BME280;8498;52.516;13.790;2024-03-17T06:45:57;101774.13;;;5.16;85.85
17781;BME280;8498;52.516;13.790;2024-03-17T06:51:18;101774.78;;;5.23;86.19
17781;BME280;8498;52.516;13.790;2024-03-17T06:56:39;101786.00;;;5.30;86.03
17781;BME280;8498;52.516;13.790;2024-03-17T07:02:01;101788.13;;;5.48;85.14
17781;BME280;8498;52.516;13.790;2024-03-17T07:07:22;101788.28;;;5.71;84.25
17781;BME280;8498;52.516;13.790;2024-03-17T07:12:43;101794.25;;;5.78;83.06
17781;BME280;8498;52.516;13.790;2024-03-17T07:18:04;101796.94;;;5.76;83.73
17781;BME280;8498;52.516;13.790;2024-03-17T07:23:26;101809.63;;;5.93;82.63
17781;BME280;8498;52.516;13.790;2024-03-17T07:28:47;101800.34;;;6.09;80.98
17781;BME280;8498;52.516;13.790;2024-03-17T07:34:09;101808.59;;;6.25;80.04
17781;BME280;8498;52.516;13.790;2024-03-17T07:39:30;101818.59;;;6.43;79.90
17781;BME280;8498;52.516;13.790;2024-03-17T07:44:54;101815.53;;;6.29;78.23
17781;BME280;8498;52.516;13.790;2024-03-17T07:50:15;101828.84;;;6.52;77.32
17781;BME280;8498;52.516;13.790;2024-03-17T07:55:37;101823.72;;;6.74;76.50
17781;BME280;8498;52.516;13.790;2024-03-17T08:00:59;101827.22;;;6.75;75.13
17781;BME280;8498;52.516;13.790;2024-03-17T08:06:23;101827.03;;;7.06;74.67
17781;BME280;8498;52.516;13.790;2024-03-17T08:11:45;101836.50;;;7.11;73.30
17781;BME280;8498;52.516;13.790;2024-03-17T08:17:08;101838.22;;;7.12;72.42
17781;BME280;8498;52.516;13.790;2024-03-17T08:22:29;101832.28;;;7.30;71.99
17781;BME280;8498;52.516;13.790;2024-03-17T08:27:51;101835.81;;;7.29;70.91
17781;BME280;8498;52.516;13.790;2024-03-17T08:33:13;101833.13;;;7.56;70.77
17781;BME280;8498;52.516;13.790;2024-03-17T08:38:35;101827.22;;;7.71;69.37
17781;BME280;8498;52.516;13.790;2024-03-17T08:43:56;101827.38;;;7.68;69.59
17781;BME280;8498;52.516;13.790;2024-03-17T08:49:18;101838.31;;;7.81;68.67
17781;BME280;8498;52.516;13.790;2024-03-17T08:54:39;101831.38;;;7.55;68.59
17781;BME280;8498;52.516;13.790;2024-03-17T09:00:01;101837.75;;;7.26;67.90
17781;BME280;8498;52.516;13.790;2024-03-17T09:05:22;101837.66;;;7.76;66.65
17781;BME280;8498;52.516;13.790;2024-03-17T09:10:44;101852.75;;;7.49;65.11
17781;BME280;8498;52.516;13.790;2024-03-17T09:16:05;101837.94;;;7.68;65.02
17781;BME280;8498;52.516;13.790;2024-03-17T09:21:26;101847.63;;;7.91;64.02
17781;BME280;8498;52.516;13.790;2024-03-17T09:26:47;101844.56;;;8.01;63.27
17781;BME280;8498;52.516;13.790;2024-03-17T09:32:09;101834.56;;;8.09;62.78
17781;BME280;8498;52.516;13.790;2024-03-17T09:37:35;101839.81;;;8.55;62.89
17781;BME280;8498;52.516;13.790;2024-03-17T09:42:57;101836.34;;;8.53;61.45
17781;BME280;8498;52.516;13.790;2024-03-17T09:48:18;101837.13;;;8.76;62.09
17781;BME280;8498;52.516;13.790;2024-03-17T09:53:40;101847.22;;;8.89;61.53
17781;BME280;8498;52.516;13.790;2024-03-17T09:59:02;101849.41;;;9.19;58.67
17781;BME280;8498;52.516;13.790;2024-03-17T10:04:32;101839.78;;;9.37;58.32
17781;BME280;8498;52.516;13.790;2024-03-17T10:10:10;101842.81;;;9.67;58.08
17781;BME280;8498;52.516;13.790;2024-03-17T10:15:33;101836.53;;;9.88;55.88
17781;BME280;8498;52.516;13.790;2024-03-17T10:20:56;101834.88;;;9.28;57.82
17781;BME280;8498;52.516;13.790;2024-03-17T10:26:19;101831.78;;;10.14;56.27
17781;BME280;8498;52.516;13.790;2024-03-17T10:31:42;101825.81;;;10.09;56.23
17781;BME280;8498;52.516;13.790;2024-03-17T10:37:17;101814.66;;;10.57;53.13
17781;BME280;8498;52.516;13.790;2024-03-17T10:42:41;101815.25;;;10.62;52.75
17781;BME280;8498;52.516;13.790;2024-03-17T10:48:03;101820.50;;;11.48;50.85
17781;BME280;8498;52.516;13.790;2024-03-17T10:53:29;101829.78;;;11.90;50.51
17781;BME280;8498;52.516;13.790;2024-03-17T10:58:53;101816.44;;;12.37;47.60
17781;BME280;8498;52.516;13.790;2024-03-17T11:04:17;101819.66;;;12.58;47.25
17781;BME280;8498;52.516;13.790;2024-03-17T11:09:39;101822.72;;;12.52;46.59
17781;BME280;8498;52.516;13.790;2024-03-17T11:20:42;101828.41;;;11.83;48.21
17781;BME280;8498;52.516;13.790;2024-03-17T11:26:05;101821.69;;;12.98;46.14
17781;BME280;8498;52.516;13.790;2024-03-17T11:31:38;101822.09;;;12.62;45.98
17781;BME280;8498;52.516;13.790;2024-03-17T11:37:03;101824.00;;;13.04;45.50
17781;BME280;8498;52.516;13.790;2024-03-17T11:42:27;101826.28;;;12.96;44.68
17781;BME280;8498;52.516;13.790;2024-03-17T11:47:48;101814.50;;;12.70;46.00
17781;BME280;8498;52.516;13.790;2024-03-17T11:53:10;101815.66;;;12.80;45.07
17781;BME280;8498;52.516;13.790;2024-03-17T11:58:32;101804.19;;;12.64;45.31
17781;BME280;8498;52.516;13.790;2024-03-17T12:03:54;101819.66;;;11.96;46.27
17781;BME280;8498;52.516;13.790;2024-03-17T12:09:19;101823.44;;;12.08;46.92
17781;BME280;8498;52.516;13.790;2024-03-17T12:14:43;101817.00;;;12.12;47.39
17781;BME280;8498;52.516;13.790;2024-03-17T12:20:05;101813.03;;;11.88;47.02
17781;BME280;8498;52.516;13.790;2024-03-17T12:25:27;101807.34;;;11.45;47.95
17781;BME280;8498;52.516;13.790;2024-03-17T12:30:50;101809.25;;;11.43;48.86
17781;BME280;8498;52.516;13.790;2024-03-17T12:36:14;101810.75;;;10.98;48.01
17781;BME280;8498;52.516;13.790;2024-03-17T12:41:36;101802.22;;;11.91;47.01
17781;BME280;8498;52.516;13.790;2024-03-17T12:46:59;101782.09;;;12.17;46.37
17781;BME280;8498;52.516;13.790;2024-03-17T12:52:25;101790.28;;;11.49;47.78
17781;BME280;8498;52.516;13.790;2024-03-17T12:57:51;101792.81;;;11.19;47.89
17781;BME280;8498;52.516;13.790;2024-03-17T13:03:35;101805.47;;;11.47;46.47
17781;BME280;8498;52.516;13.790;2024-03-17T13:08:57;101795.94;;;11.43;46.69
17781;BME280;8498;52.516;13.790;2024-03-17T13:14:18;101800.63;;;11.05;47.31
17781;BME280;8498;52.516;13.790;2024-03-17T13:19:39;101797.84;;;11.41;47.26
17781;BME280;8498;52.516;13.790;2024-03-17T13:25:02;101794.00;;;12.71;42.68
17781;BME280;8498;52.516;13.790;2024-03-17T13:30:24;101784.53;;;13.25;42.18
17781;BME280;8498;52.516;13.790;2024-03-17T13:35:45;101789.84;;;12.81;42.85
17781;BME280;8498;52.516;13.790;2024-03-17T13:41:06;101783.34;;;13.29;41.86
17781;BME280;8498;52.516;13.790;2024-03-17T13:46:30;101782.34;;;13.17;41.45
17781;BME280;8498;52.516;13.790;2024-03-17T13:51:52;101784.59;;;13.66;40.72
17781;BME280;8498;52.516;13.790;2024-03-17T13:57:14;101783.09;;;13.34;41.36
17781;BME280;8498;52.516;13.790;2024-03-17T14:02:35;101774.13;;;13.49;41.28
17781;BME280;8498;52.516;13.790;2024-03-17T14:07:56;101779.78;;;12.86;41.66
17781;BME280;8498;52.516;13.790;2024-03-17T14:13:17;101770.63;;;12.76;41.02
17781;BME280;8498;52.516;13.790;2024-03-17T14:18:38;101779.34;;;12.18;42.37
17781;BME280;8498;52.516;13.790;2024-03-17T14:24:01;101773.63;;;11.30;44.34
17781;BME280;8498;52.516;13.790;2024-03-17T14:29:24;101770.47;;;11.22;44.41
17781;BME280;8498;52.516;13.790;2024-03-17T14:34:47;101770.84;;;10.98;45.43
17781;BME280;8498;52.516;13.790;2024-03-17T14:40:09;101760.38;;;10.95;45.74
17781;BME280;8498;52.516;13.790;2024-03-17T14:45:38;101775.00;;;10.70;46.52
17781;BME280;8498;52.516;13.790;2024-03-17T14:50:59;101772.44;;;10.68;46.79
17781;BME280;8498;52.516;13.790;2024-03-17T14:56:22;101764.47;;;10.68;47.28
17781;BME280;8498;52.516;13.790;2024-03-17T15:01:42;101776.41;;;10.59;47.02
17781;BME280;8498;52.516;13.790;2024-03-17T15:07:04;101778.47;;;10.18;47.73
17781;BME280;8498;52.516;13.790;2024-03-17T15:12:25;101771.25;;;10.03;48.00
17781;BME280;8498;52.516;13.790;2024-03-17T15:17:46;101773.16;;;10.00;48.72
17781;BME280;8498;52.516;13.790;2024-03-17T15:23:09;101768.66;;;10.02;48.95
17781;BME280;8498;52.516;13.790;2024-03-17T15:28:31;101774.13;;;9.80;49.39
17781;BME280;8498;52.516;13.790;2024-03-17T15:33:52;101764.16;;;9.85;49.83
17781;BME280;8498;52.516;13.790;2024-03-17T15:39:13;101763.66;;;9.77;49.72
17781;BME280;8498;52.516;13.790;2024-03-17T15:44:35;101767.03;;;9.80;49.36
17781;BME280;8498;52.516;13.790;2024-03-17T15:49:56;101758.41;;;9.94;49.99
17781;BME280;8498;52.516;13.790;2024-03-17T15:55:17;101762.16;;;10.07;49.05
17781;BME280;8498;52.516;13.790;2024-03-17T16:00:38;101769.31;;;9.88;48.64
17781;BME280;8498;52.516;13.790;2024-03-17T16:06:04;101768.53;;;9.86;49.07
17781;BME280;8498;52.516;13.790;2024-03-17T16:11:30;101770.50;;;9.64;49.37
17781;BME280;8498;52.516;13.790;2024-03-17T16:16:52;101774.88;;;9.65;50.24
17781;BME280;8498;52.516;13.790;2024-03-17T16:22:13;101772.84;;;9.51;49.44
17781;BME280;8498;52.516;13.790;2024-03-17T16:27:34;101782.78;;;9.27;49.29
17781;BME280;8498;52.516;13.790;2024-03-17T16:32:55;101784.63;;;9.25;50.01
17781;BME280;8498;52.516;13.790;2024-03-17T16:38:20;101788.44;;;9.19;50.39
17781;BME280;8498;52.516;13.790;2024-03-17T16:43:57;101792.59;;;9.05;50.54
17781;BME280;8498;52.516;13.790;2024-03-17T16:49:21;101795.66;;;8.96;50.93
17781;BME280;8498;52.516;13.790;2024-03-17T16:54:44;101791.75;;;8.84;51.62
17781;BME280;8498;52.516;13.790;2024-03-17T17:00:05;101796.88;;;8.68;52.24
17781;BME280;8498;52.516;13.790;2024-03-17T17:05:38;101792.34;;;8.50;53.42
17781;BME280;8498;52.516;13.790;2024-03-17T17:11:00;101793.31;;;8.26;54.81
17781;BME280;8498;52.516;13.790;2024-03-17T17:16:23;101793.44;;;8.01;56.38
17781;BME280;8498;52.516;13.790;2024-03-17T17:21:45;101791.00;;;7.73;57.76
17781;BME280;8498;52.516;13.790;2024-03-17T17:27:12;101799.88;;;7.49;59.57
17781;BME280;8498;52.516;13.790;2024-03-17T17:32:34;101793.69;;;7.26;61.59
17781;BME280;8498;52.516;13.790;2024-03-17T17:38:02;101790.75;;;7.09;63.19
17781;BME280;8498;52.516;13.790;2024-03-17T17:43:24;101802.22;;;6.85;64.36
17781;BME280;8498;52.516;13.790;2024-03-17T17:48:46;101794.59;;;6.76;64.77
17781;BME280;8498;52.516;13.790;2024-03-17T17:54:07;101800.84;;;6.73;64.23
17781;BME280;8498;52.516;13.790;2024-03-17T17:59:28;101798.94;;;6.77;64.69
17781;BME280;8498;52.516;13.790;2024-03-17T18:04:49;101794.00;;;6.68;64.97
17781;BME280;8498;52.516;13.790;2024-03-17T18:10:11;101804.88;;;6.58;66.20
17781;BME280;8498;52.516;13.790;2024-03-17T18:15:32;101810.25;;;6.55;66.62
17781;BME280;8498;52.516;13.790;2024-03-17T18:20:58;101815.09;;;6.43;67.29
17781;BME280;8498;52.516;13.790;2024-03-17T18:26:22;101817.16;;;6.33;68.28
17781;BME280;8498;52.516;13.790;2024-03-17T18:31:43;101809.44;;;6.27;68.57
17781;BME280;8498;52.516;13.790;2024-03-17T18:37:04;101812.38;;;6.18;67.77
17781;BME280;8498;52.516;13.790;2024-03-17T18:42:25;101821.47;;;6.08;68.09
17781;BME280;8498;52.516;13.790;2024-03-17T18:47:47;101814.69;;;6.01;67.79
17781;BME280;8498;52.516;13.790;2024-03-17T18:53:08;101817.53;;;5.93;68.54
17781;BME280;8498;52.516;13.790;2024-03-17T18:58:30;101830.09;;;5.83;68.00
17781;BME280;8498;52.516;13.790;2024-03-17T19:03:51;101833.84;;;5.76;68.32
17781;BME280;8498;52.516;13.790;2024-03-17T19:09:12;101834.03;;;5.70;68.11
17781;BME280;8498;52.516;13.790;2024-03-17T19:14:36;101841.13;;;5.68;68.69
17781;BME280;8498;52.516;13.790;2024-03-17T19:19:57;101845.84;;;5.57;68.75
17781;BME280;8498;52.516;13.790;2024-03-17T19:25:18;101850.47;;;5.49;69.04
17781;BME280;8498;52.516;13.790;2024-03-17T19:30:40;101854.34;;;5.36;70.44
17781;BME280;8498;52.516;13.790;2024-03-17T19:36:04;101859.41;;;5.11;71.43
17781;BME280;8498;52.516;13.790;2024-03-17T19:41:30;101859.25;;;4.85;73.27
17781;BME280;8498;52.516;13.790;2024-03-17T19:46:51;101862.25;;;4.69;73.66
17781;BME280;8498;52.516;13.790;2024-03-17T19:52:13;101854.75;;;4.54;74.75
17781;BME280;8498;52.516;13.790;2024-03-17T19:57:34;101862.03;;;4.43;75.48
17781;BME280;8498;52.516;13.790;2024-03-17T20:02:55;101864.88;;;4.35;76.03
17781;BME280;8498;52.516;13.790;2024-03-17T20:08:19;101872.84;;;4.31;76.70
17781;BME280;8498;52.516;13.790;2024-03-17T20:13:41;101871.03;;;4.34;76.19
17781;BME280;8498;52.516;13.790;2024-03-17T20:19:03;101870.94;;;4.37;76.55
17781;BME280;8498;52.516;13.790;2024-03-17T20:24:25;101880.53;;;4.40;76.92
17781;BME280;8498;52.516;13.790;2024-03-17T20:29:47;101880.44;;;4.45;76.77
17781;BME280;8498;52.516;13.790;2024-03-17T20:35:09;101884.91;;;4.39;77.07
17781;BME280;8498;52.516;13.790;2024-03-17T20:40:30;101879.72;;;4.36;77.92
17781;BME280;8498;52.516;13.790;2024-03-17T20:45:52;101886.88;;;4.31;78.88
17781;BME280;8498;52.516;13.790;2024-03-17T20:51:15;101877.25;;;4.30;78.39
17781;BME280;8498;52.516;13.790;2024-03-17T20:56:37;101874.97;;;4.15;79.28
17781;BME280;8498;52.516;13.790;2024-03-17T21:01:58;101876.69;;;4.16;79.66
17781;BME280;8498;52.516;13.790;2024-03-17T21:07:19;101872.59;;;4.04;80.40
17781;BME280;8498;52.516;13.790;2024-03-17T21:12:41;101869.16;;;4.01;80.30
17781;BME280;8498;52.516;13.790;2024-03-17T21:18:03;101869.25;;;3.95;80.92
17781;BME280;8498;52.516;13.790;2024-03-17T21:23:26;101876.53;;;3.84;81.45
17781;BME280;8498;52.516;13.790;2024-03-17T21:28:48;101871.41;;;3.78;81.86
17781;BME280;8498;52.516;13.790;2024-03-17T21:34:09;101870.69;;;3.69;81.32
17781;BME280;8498;52.516;13.790;2024-03-17T21:39:30;101878.78;;;3.60;81.07
17781;BME280;8498;52.516;13.790;2024-03-17T21:44:52;101875.69;;;3.40;82.15
17781;BME280;8498;52.516;13.790;2024-03-17T21:50:33;101864.47;;;3.32;83.84
17781;BME280;8498;52.516;13.790;2024-03-17T21:55:57;101864.75;;;3.17;84.18
17781;BME280;8498;52.516;13.790;2024-03-17T22:01:19;101858.78;;;3.09;84.16
17781;BME280;8498;52.516;13.790;2024-03-17T22:06:40;101866.88;;;2.95;84.68
17781;BME280;8498;52.516;13.790;2024-03-17T22:12:02;101867.00;;;2.90;84.73
17781;BME280;8498;52.516;13.790;2024-03-17T22:17:23;101861.78;;;2.87;84.64
17781;BME280;8498;52.516;13.790;2024-03-17T22:22:46;101857.50;;;2.80;84.27
17781;BME280;8498;52.516;13.790;2024-03-17T22:28:07;101860.09;;;2.83;85.60
17781;BME280;8498;52.516;13.790;2024-03-17T22:33:29;101850.44;;;2.85;85.38
17781;BME280;8498;52.516;13.790;2024-03-17T22:38:50;101847.09;;;2.77;85.37
17781;BME280;8498;52.516;13.790;2024-03-17T22:44:12;101840.09;;;2.78;84.88
17781;BME280;8498;52.516;13.790;2024-03-17T22:49:34;101841.88;;;2.76;85.17
17781;BME280;8498;52.516;13.790;2024-03-17T22:54:56;101851.63;;;2.69;84.16
17781;BME280;8498;52.516;13.790;2024-03-17T23:00:17;101839.63;;;2.53;84.37
17781;BME280;8498;52.516;13.790;2024-03-17T23:05:43;101838.91;;;2.43;84.23
17781;BME280;8498;52.516;13.790;2024-03-17T23:11:05;101834.69;;;2.33;85.06
17781;BME280;8498;52.516;13.790;2024-03-17T23:16:27;101832.94;;;2.34;85.63
17781;BME280;8498;52.516;13.790;2024-03-17T23:21:49;101832.13;;;2.30;86.05
17781;BME280;8498;52.516;13.790;2024-03-17T23:27:10;101828.59;;;2.31;85.45
17781;BME280;8498;52.516;13.790;2024-03-17T23:32:31;101821.69;;;2.27;85.46
17781;BME280;8498;52.516;13.790;2024-03-17T23:37:54;101825.28;;;2.20;85.43
17781;BME280;8498;52.516;13.790;2024-03-17T23:43:15;101819.09;;;2.26;84.90
17781;BME280;8498;52.516;13.790;2024-03-17T23:48:37;101818.28;;;2.20;84.79
17781;BME280;8498;52.516;13.790;2024-03-17T23:53:58;101819.19;;;2.19;84.19
17781;BME280;8498;52.516;13.790;2024-03-17T23:59:19;101820.13;;;2.15;84.29
